Rechercher aéroport 
image banner adimage banner adimage banner ad
image banner ad

56PN - Atlantic Refining&Marketing Corp

Situé à Philadelphia, United States

ICAO - 56PN, IATA -

Données fournies par Airmate  

Information générale

Coordonnées: N39°55'11" W75°11'48"
Élévation : 30 feet MSL.
Variation magnétique : -11° East
Voir autres Aéroports à Pennsylvania

Données opérationnelles

Special qualification required
Heure actuelle UTC:
Heure actuelle locale:
Météo à : KPHL - Philadelphia Intl ( 7 km )
METAR: KPHL 131854Z 19007KT 10SM BKN038 BKN080 26/17 A2990 RMK AO2 SLP125 T02560172 $
TAF: KPHL 131728Z 1318/1424 21006KT P6SM BKN045 FM132300 17006KT P6SM BKN045 FM140600 19006KT P6SM -SHRA OVC025 FM140900 19006KT 4SM -SHRA BR OVC015 FM141300 20006KT P6SM BKN010 FM142000 22007KT P6SM BKN035
Voir NOTAMs / SUP AIP / TFR affectant cet aéroport [VIEW]
Fréquences de communication: [VIEW]

Pistes:

Coordonnées de l'aéroport

Adresse: Philadelphia United States

Vue satellite de 56PN